createdAt,value
2018-02-27T00:00:12.077Z,99.99
2018-02-27T00:01:12.640Z,99.99
2018-02-27T00:02:13.206Z,99.99
2018-02-27T00:03:13.769Z,99.99
2018-02-27T00:04:14.331Z,99.99
2018-02-27T00:05:14.893Z,99.99
2018-02-27T00:06:15.456Z,99.99
2018-02-27T00:07:16.021Z,99.99
2018-02-27T00:08:16.598Z,99.99
2018-02-27T00:09:17.162Z,99.99
2018-02-27T00:10:17.728Z,99.99
2018-02-27T00:11:18.292Z,99.99
2018-02-27T00:12:18.855Z,99.99
2018-02-27T00:13:19.420Z,99.99
2018-02-27T00:14:19.983Z,99.99
2018-02-27T00:15:20.549Z,99.99
2018-02-27T00:16:21.110Z,99.99
2018-02-27T00:17:21.673Z,99.99
2018-02-27T00:18:22.241Z,99.99
2018-02-27T00:19:22.815Z,99.99
2018-02-27T00:20:23.380Z,99.99
2018-02-27T00:21:23.945Z,99.99
2018-02-27T00:22:24.509Z,99.99
2018-02-27T00:23:25.071Z,99.99
2018-02-27T00:24:25.641Z,99.99
2018-02-27T00:25:26.200Z,99.99
2018-02-27T00:26:26.763Z,99.99
2018-02-27T00:27:27.326Z,99.99
2018-02-27T00:28:27.890Z,99.99
2018-02-27T00:29:28.455Z,99.99
2018-02-27T00:30:29.018Z,99.99
2018-02-27T00:31:29.582Z,99.99
2018-02-27T00:32:30.144Z,99.99
2018-02-27T00:33:30.707Z,99.99
2018-02-27T00:34:31.273Z,99.99
2018-02-27T00:35:31.836Z,99.99
2018-02-27T00:36:32.406Z,99.99
2018-02-27T00:37:32.977Z,99.99
2018-02-27T00:38:33.541Z,99.99
2018-02-27T00:39:34.104Z,99.99
2018-02-27T00:40:34.675Z,99.99
2018-02-27T00:41:35.236Z,99.99
2018-02-27T00:42:35.800Z,99.99
2018-02-27T00:43:36.363Z,99.99
2018-02-27T00:44:36.928Z,99.99
2018-02-27T00:45:37.494Z,99.99
2018-02-27T00:46:38.057Z,99.99
2018-02-27T00:47:38.620Z,99.99
2018-02-27T00:48:39.182Z,99.99
2018-02-27T00:49:39.760Z,99.99
2018-02-27T00:50:40.325Z,99.99
2018-02-27T00:51:40.890Z,99.99
2018-02-27T00:52:41.452Z,99.99
2018-02-27T00:53:42.016Z,99.99
2018-02-27T00:54:42.579Z,99.99
2018-02-27T00:55:43.144Z,99.99
2018-02-27T00:56:43.714Z,99.99
2018-02-27T00:57:44.274Z,99.99
2018-02-27T00:58:44.835Z,99.99
2018-02-27T00:59:45.411Z,99.99
2018-02-27T01:00:45.974Z,99.99
2018-02-27T01:01:46.551Z,99.99
2018-02-27T01:02:47.115Z,99.99
2018-02-27T01:03:47.679Z,99.99
2018-02-27T01:04:48.242Z,99.99
2018-02-27T01:05:48.808Z,99.99
2018-02-27T01:06:49.370Z,99.99
2018-02-27T01:07:49.933Z,99.99
2018-02-27T01:08:50.498Z,99.99
2018-02-27T01:09:51.062Z,99.99
2018-02-27T01:10:51.635Z,99.99
2018-02-27T01:11:52.187Z,99.99
2018-02-27T01:12:52.751Z,99.99
2018-02-27T01:13:53.315Z,99.99
2018-02-27T01:14:53.893Z,99.99
2018-02-27T01:15:54.458Z,99.99
2018-02-27T01:16:55.022Z,99.99
2018-02-27T01:17:55.584Z,99.99
2018-02-27T01:18:56.148Z,99.99
2018-02-27T01:19:56.718Z,99.99
2018-02-27T01:20:57.294Z,99.99
2018-02-27T01:21:57.868Z,99.99
2018-02-27T01:22:58.432Z,99.99
2018-02-27T01:23:58.996Z,99.99
2018-02-27T01:24:59.559Z,99.99
2018-02-27T01:26:00.138Z,99.99
2018-02-27T01:27:00.687Z,99.99
2018-02-27T01:28:01.256Z,99.99
2018-02-27T01:29:01.816Z,99.99
2018-02-27T01:30:02.395Z,99.99
2018-02-27T01:31:02.963Z,99.99
2018-02-27T01:32:03.535Z,99.99
2018-02-27T01:33:04.100Z,99.99
2018-02-27T01:34:04.663Z,99.99
2018-02-27T01:35:05.227Z,99.99
2018-02-27T01:36:05.793Z,99.99
2018-02-27T01:37:06.355Z,99.99
2018-02-27T01:38:06.932Z,99.99
2018-02-27T01:39:07.516Z,99.99
2018-02-27T01:40:08.075Z,99.99
2018-02-27T01:41:08.641Z,99.99
2018-02-27T01:42:09.202Z,99.99
2018-02-27T01:43:09.779Z,99.99
2018-02-27T01:44:10.341Z,99.99
2018-02-27T01:45:10.904Z,99.99
2018-02-27T01:46:11.469Z,99.32
2018-02-27T01:47:12.032Z,98.79
2018-02-27T01:48:12.597Z,97.85
2018-02-27T01:49:13.160Z,97.56
2018-02-27T01:50:13.724Z,97.38
2018-02-27T01:51:14.287Z,97.00
2018-02-27T01:52:14.854Z,96.72
2018-02-27T01:53:15.416Z,96.53
2018-02-27T01:54:15.979Z,96.67
2018-02-27T01:55:16.546Z,96.86
2018-02-27T01:56:17.108Z,97.05
2018-02-27T01:57:17.673Z,96.72
2018-02-27T01:58:18.235Z,96.62
2018-02-27T01:59:18.799Z,96.25
2018-02-27T02:00:19.362Z,96.25
2018-02-27T02:01:19.926Z,96.15
2018-02-27T02:02:20.491Z,96.62
2018-02-27T02:03:21.055Z,95.68
2018-02-27T02:04:21.619Z,95.87
2018-02-27T02:05:22.180Z,95.68
2018-02-27T02:06:22.746Z,97.00
2018-02-27T02:07:23.316Z,97.19
2018-02-27T02:08:23.886Z,97.28
2018-02-27T02:09:24.465Z,97.00
2018-02-27T02:10:25.031Z,96.44
2018-02-27T02:11:25.593Z,97.47
2018-02-27T02:12:26.157Z,97.38
2018-02-27T02:13:26.721Z,97.47
2018-02-27T02:14:27.285Z,97.28
2018-02-27T02:15:27.849Z,97.00
2018-02-27T02:16:28.412Z,96.81
2018-02-27T02:17:28.975Z,97.47
2018-02-27T02:18:29.551Z,97.47
2018-02-27T02:19:30.113Z,97.09
2018-02-27T02:20:30.677Z,96.77
2018-02-27T02:21:31.243Z,97.00
2018-02-27T02:22:31.806Z,97.38
2018-02-27T02:23:32.369Z,96.53
2018-02-27T02:24:32.930Z,96.34
2018-02-27T02:25:33.494Z,97.19
2018-02-27T02:26:34.058Z,96.72
2018-02-27T02:27:34.620Z,96.25
2018-02-27T02:28:35.185Z,96.48
2018-02-27T02:29:35.748Z,96.34
2018-02-27T02:30:36.313Z,97.66
2018-02-27T02:31:36.876Z,97.28
2018-02-27T02:32:37.440Z,97.33
2018-02-27T02:33:38.003Z,96.53
2018-02-27T02:34:38.565Z,96.91
2018-02-27T02:35:39.129Z,96.25
2018-02-27T02:36:39.694Z,96.72
2018-02-27T02:37:40.256Z,96.34
2018-02-27T02:38:40.820Z,95.87
2018-02-27T02:39:41.381Z,95.12
2018-02-27T02:40:41.947Z,94.65
2018-02-27T02:41:42.512Z,95.59
2018-02-27T02:42:43.075Z,94.83
2018-02-27T02:43:43.637Z,94.93
2018-02-27T02:44:44.200Z,93.42
2018-02-27T02:45:44.766Z,94.65
2018-02-27T02:46:45.340Z,94.55
2018-02-27T02:47:45.904Z,94.83
2018-02-27T02:48:46.468Z,95.68
2018-02-27T02:49:47.043Z,95.50
2018-02-27T02:50:47.607Z,95.68
2018-02-27T02:51:48.170Z,95.21
2018-02-27T02:52:48.734Z,95.68
2018-02-27T02:53:49.297Z,95.87
2018-02-27T02:54:49.861Z,95.40
2018-02-27T02:55:50.427Z,95.21
2018-02-27T02:56:50.990Z,95.40
2018-02-27T02:57:51.552Z,96.06
2018-02-27T02:58:52.115Z,95.50
2018-02-27T02:59:52.678Z,95.59
2018-02-27T03:00:53.242Z,94.83
2018-02-27T03:01:53.819Z,95.12
2018-02-27T03:02:54.382Z,95.68
2018-02-27T03:03:54.944Z,95.50
2018-02-27T03:04:55.507Z,95.87
2018-02-27T03:05:56.072Z,95.59
2018-02-27T03:06:56.635Z,96.06
2018-02-27T03:07:57.204Z,95.50
2018-02-27T03:08:57.761Z,94.83
2018-02-27T03:09:58.328Z,95.59
2018-02-27T03:10:58.889Z,95.87
2018-02-27T03:11:59.454Z,96.06
2018-02-27T03:13:00.017Z,95.59
2018-02-27T03:14:00.579Z,94.83
2018-02-27T03:15:01.142Z,95.40
2018-02-27T03:16:01.706Z,94.83
2018-02-27T03:17:02.271Z,94.83
2018-02-27T03:18:02.833Z,94.46
2018-02-27T03:19:03.398Z,93.70
2018-02-27T03:20:03.958Z,94.36
2018-02-27T03:21:04.522Z,94.93
2018-02-27T03:22:05.086Z,94.55
2018-02-27T03:23:05.649Z,93.42
2018-02-27T03:24:06.211Z,94.55
2018-02-27T03:25:06.777Z,95.59
2018-02-27T03:26:07.337Z,94.46
2018-02-27T03:27:07.908Z,95.12
2018-02-27T03:28:08.482Z,94.74
2018-02-27T03:29:09.043Z,94.46
2018-02-27T03:30:09.607Z,93.89
2018-02-27T03:31:10.169Z,93.51
2018-02-27T03:32:10.732Z,93.80
2018-02-27T03:33:11.298Z,93.70
2018-02-27T03:34:11.860Z,93.80
2018-02-27T03:35:12.423Z,93.42
2018-02-27T03:36:12.986Z,93.32
2018-02-27T03:37:13.563Z,93.51
2018-02-27T03:38:14.123Z,93.42
2018-02-27T03:39:14.686Z,93.51
2018-02-27T03:40:15.248Z,93.70
2018-02-27T03:41:15.812Z,93.51
2018-02-27T03:42:16.374Z,93.42
2018-02-27T03:43:16.936Z,93.23
2018-02-27T03:44:17.500Z,93.89
2018-02-27T03:45:18.064Z,93.04
2018-02-27T03:46:18.628Z,93.13
2018-02-27T03:47:19.192Z,93.80
2018-02-27T03:48:19.768Z,95.02
2018-02-27T03:49:20.332Z,93.70
2018-02-27T03:50:20.900Z,92.76
2018-02-27T03:51:21.460Z,92.19
2018-02-27T03:52:22.024Z,92.00
2018-02-27T03:53:22.586Z,92.38
2018-02-27T03:54:23.150Z,91.63
2018-02-27T03:55:23.710Z,91.16
2018-02-27T03:56:24.273Z,89.93
2018-02-27T03:57:24.838Z,86.44
2018-02-27T03:58:25.400Z,89.84
2018-02-27T03:59:25.963Z,91.35
2018-02-27T04:00:26.525Z,91.06
2018-02-27T04:01:27.088Z,89.74
2018-02-27T04:02:27.653Z,89.74
2018-02-27T04:03:28.230Z,88.99
2018-02-27T04:04:28.792Z,87.76
2018-02-27T04:05:29.368Z,87.10
2018-02-27T04:06:29.945Z,87.10
2018-02-27T04:07:30.508Z,88.33
2018-02-27T04:08:31.072Z,87.67
2018-02-27T04:09:31.636Z,88.89
2018-02-27T04:10:32.198Z,88.04
2018-02-27T04:11:32.760Z,87.10
2018-02-27T04:12:33.336Z,87.10
2018-02-27T04:13:33.913Z,87.19
2018-02-27T04:14:34.474Z,87.19
2018-02-27T04:15:35.036Z,86.25
2018-02-27T04:16:35.597Z,88.04
2018-02-27T04:17:36.161Z,88.04
2018-02-27T04:18:36.725Z,86.91
2018-02-27T04:19:37.289Z,87.29
2018-02-27T04:20:37.865Z,87.95
2018-02-27T04:21:38.428Z,86.25
2018-02-27T04:22:38.991Z,85.78
2018-02-27T04:23:39.554Z,86.82
2018-02-27T04:24:40.119Z,86.54
2018-02-27T04:25:40.681Z,85.88
2018-02-27T04:26:41.244Z,85.22
2018-02-27T04:27:41.805Z,85.22
2018-02-27T04:28:42.368Z,84.94
2018-02-27T04:29:42.931Z,85.03
2018-02-27T04:30:43.495Z,84.28
2018-02-27T04:31:44.059Z,83.80
2018-02-27T04:32:44.621Z,83.33
2018-02-27T04:33:45.182Z,83.61
2018-02-27T04:34:45.748Z,84.47
2018-02-27T04:35:46.311Z,84.47
2018-02-27T04:36:46.876Z,84.09
2018-02-27T04:37:47.436Z,85.69
2018-02-27T04:38:47.998Z,85.88
2018-02-27T04:39:48.562Z,85.22
2018-02-27T04:40:49.126Z,85.13
2018-02-27T04:41:49.689Z,85.03
2018-02-27T04:42:50.252Z,83.80
2018-02-27T04:43:50.814Z,84.47
2018-02-27T04:44:51.379Z,84.65
2018-02-27T04:45:51.941Z,83.71
2018-02-27T04:46:52.518Z,84.56
2018-02-27T04:47:53.083Z,83.33
2018-02-27T04:48:53.646Z,83.43
2018-02-27T04:49:54.210Z,84.56
2018-02-27T04:50:54.774Z,83.90
2018-02-27T04:51:55.335Z,83.71
2018-02-27T04:52:55.899Z,83.24
2018-02-27T04:53:56.460Z,83.24
2018-02-27T04:54:57.030Z,83.43
2018-02-27T04:55:57.599Z,83.14
2018-02-27T04:56:58.162Z,82.86
2018-02-27T04:57:58.725Z,81.92
2018-02-27T04:58:59.289Z,81.82
2018-02-27T04:59:59.851Z,82.29
2018-02-27T05:01:00.415Z,82.29
2018-02-27T05:02:00.976Z,82.76
2018-02-27T05:03:01.540Z,82.76
2018-02-27T05:04:02.104Z,82.67
2018-02-27T05:05:02.666Z,83.33
2018-02-27T05:06:03.229Z,83.24
2018-02-27T05:07:03.792Z,83.24
2018-02-27T05:08:04.354Z,83.14
2018-02-27T05:09:04.920Z,82.95
2018-02-27T05:10:05.498Z,82.67
2018-02-27T05:11:06.061Z,82.76
2018-02-27T05:12:06.624Z,82.86
2018-02-27T05:13:07.190Z,83.52
2018-02-27T05:14:07.750Z,84.28
2018-02-27T05:15:08.315Z,84.28
2018-02-27T05:16:08.876Z,84.33
2018-02-27T05:17:09.437Z,84.09
2018-02-27T05:18:10.000Z,84.28
2018-02-27T05:19:10.575Z,84.89
2018-02-27T05:20:11.150Z,84.23
2018-02-27T05:21:11.714Z,83.71
2018-02-27T05:22:12.275Z,85.03
2018-02-27T05:23:12.838Z,85.22
2018-02-27T05:24:13.403Z,85.60
2018-02-27T05:25:13.965Z,85.41
2018-02-27T05:26:14.526Z,84.65
2018-02-27T05:27:15.089Z,86.54
2018-02-27T05:28:15.655Z,86.07
2018-02-27T05:29:16.217Z,87.29
2018-02-27T05:30:16.792Z,86.54
2018-02-27T05:31:17.356Z,87.01
2018-02-27T05:32:17.919Z,86.59
2018-02-27T05:33:18.480Z,85.64
2018-02-27T05:34:19.057Z,85.27
2018-02-27T05:35:19.619Z,86.11
2018-02-27T05:36:20.181Z,85.69
2018-02-27T05:37:20.743Z,86.25
2018-02-27T05:38:21.307Z,87.48
2018-02-27T05:39:21.885Z,86.68
2018-02-27T05:40:22.449Z,86.96
2018-02-27T05:41:23.026Z,86.91
2018-02-27T05:42:23.589Z,86.72
2018-02-27T05:43:24.151Z,87.10
2018-02-27T05:44:24.714Z,89.18
2018-02-27T05:45:25.279Z,89.84
2018-02-27T05:46:25.840Z,88.99
2018-02-27T05:47:26.404Z,89.98
2018-02-27T05:48:26.966Z,88.23
2018-02-27T05:49:27.529Z,89.84
2018-02-27T05:50:28.106Z,89.37
2018-02-27T05:51:28.671Z,88.23
2018-02-27T05:52:29.234Z,88.61
2018-02-27T05:53:29.797Z,88.61
2018-02-27T05:54:30.358Z,87.06
2018-02-27T05:55:30.920Z,86.72
2018-02-27T05:56:31.484Z,85.55
2018-02-27T05:57:32.047Z,85.69
2018-02-27T05:58:32.611Z,84.61
2018-02-27T05:59:33.174Z,84.52
2018-02-27T06:00:33.747Z,83.76
2018-02-27T06:01:34.310Z,83.29
2018-02-27T06:02:34.877Z,82.95
2018-02-27T06:03:35.435Z,83.39
2018-02-27T06:04:35.999Z,84.37
2018-02-27T06:05:36.562Z,85.36
2018-02-27T06:06:37.124Z,84.70
2018-02-27T06:07:37.688Z,83.99
2018-02-27T06:08:38.249Z,84.70
2018-02-27T06:09:38.814Z,83.95
2018-02-27T06:10:39.378Z,83.48
2018-02-27T06:11:39.940Z,82.92
2018-02-27T06:12:40.502Z,82.54
2018-02-27T06:13:41.078Z,82.54
2018-02-27T06:14:41.640Z,82.82
2018-02-27T06:15:42.204Z,82.82
2018-02-27T06:16:42.769Z,83.86
2018-02-27T06:17:43.331Z,84.89
2018-02-27T06:18:43.892Z,84.70
2018-02-27T06:19:44.454Z,84.37
2018-02-27T06:20:45.021Z,85.22
2018-02-27T06:21:45.585Z,85.27
2018-02-27T06:22:46.153Z,85.22
2018-02-27T06:23:46.714Z,84.61
2018-02-27T06:24:47.273Z,83.76
2018-02-27T06:25:47.838Z,83.01
2018-02-27T06:26:48.403Z,82.35
2018-02-27T06:27:48.965Z,81.31
2018-02-27T06:28:49.530Z,81.59
2018-02-27T06:29:50.094Z,81.59
2018-02-27T06:30:50.658Z,81.69
2018-02-27T06:31:51.225Z,82.01
2018-02-27T06:32:51.786Z,82.25
2018-02-27T06:33:52.352Z,82.92
2018-02-27T06:34:52.916Z,83.29
2018-02-27T06:35:53.481Z,83.48
2018-02-27T06:36:54.046Z,83.67
2018-02-27T06:37:54.609Z,83.76
2018-02-27T06:38:55.173Z,84.18
2018-02-27T06:39:55.737Z,83.39
2018-02-27T06:40:56.304Z,83.10
2018-02-27T06:41:56.880Z,83.39
2018-02-27T06:42:57.444Z,83.33
2018-02-27T06:43:58.022Z,83.71
2018-02-27T06:44:58.585Z,84.18
2018-02-27T06:45:59.147Z,83.90
2018-02-27T06:46:59.713Z,84.47
2018-02-27T06:48:00.275Z,84.56
2018-02-27T06:49:00.839Z,84.47
2018-02-27T06:50:01.403Z,84.47
2018-02-27T06:51:01.966Z,84.47
2018-02-27T06:52:02.545Z,84.28
2018-02-27T06:53:03.110Z,84.65
2018-02-27T06:54:03.678Z,83.80
2018-02-27T06:55:04.238Z,84.28
2018-02-27T06:56:04.806Z,83.52
2018-02-27T06:57:05.371Z,84.28
2018-02-27T06:58:05.935Z,83.80
2018-02-27T06:59:06.500Z,83.90
2018-02-27T07:00:07.063Z,83.90
2018-02-27T07:01:07.629Z,84.28
2018-02-27T07:02:08.196Z,83.90
2018-02-27T07:03:08.760Z,83.71
2018-02-27T07:04:09.323Z,82.67
2018-02-27T07:05:09.902Z,82.20
2018-02-27T07:06:10.482Z,82.20
2018-02-27T07:07:11.044Z,81.73
2018-02-27T07:08:11.610Z,82.20
2018-02-27T07:09:12.175Z,81.92
2018-02-27T07:10:12.741Z,81.45
2018-02-27T07:11:13.305Z,81.92
2018-02-27T07:12:13.873Z,81.54
2018-02-27T07:13:14.436Z,80.88
2018-02-27T07:14:15.001Z,81.35
2018-02-27T07:15:15.568Z,81.54
2018-02-27T07:16:16.132Z,81.45
2018-02-27T07:17:16.699Z,81.35
2018-02-27T07:18:17.269Z,82.29
2018-02-27T07:19:17.830Z,82.86
2018-02-27T07:20:18.395Z,82.10
2018-02-27T07:21:18.959Z,82.39
2018-02-27T07:22:19.525Z,81.82
2018-02-27T07:23:20.090Z,82.01
2018-02-27T07:24:20.656Z,82.67
2018-02-27T07:25:21.221Z,83.52
2018-02-27T07:26:21.785Z,83.52
2018-02-27T07:27:22.351Z,83.90
2018-02-27T07:28:22.915Z,83.71
2018-02-27T07:29:23.480Z,84.56
2018-02-27T07:30:24.046Z,85.88
2018-02-27T07:31:24.623Z,85.22
2018-02-27T07:32:25.188Z,85.97
2018-02-27T07:33:25.761Z,85.22
2018-02-27T07:34:26.320Z,85.88
2018-02-27T07:35:26.884Z,85.88
2018-02-27T07:36:27.450Z,85.69
2018-02-27T07:37:28.014Z,86.44
2018-02-27T07:38:28.580Z,86.63
2018-02-27T07:39:29.147Z,87.86
2018-02-27T07:40:29.712Z,88.33
2018-02-27T07:41:30.279Z,88.42
2018-02-27T07:42:30.848Z,88.23
2018-02-27T07:43:31.411Z,89.08
2018-02-27T07:44:31.978Z,87.01
2018-02-27T07:45:32.554Z,88.04
2018-02-27T07:46:33.126Z,88.33
2018-02-27T07:47:33.693Z,88.61
2018-02-27T07:48:34.258Z,88.42
2018-02-27T07:49:34.824Z,88.14
2018-02-27T07:50:35.390Z,88.80
2018-02-27T07:51:35.971Z,89.08
2018-02-27T07:52:36.546Z,89.74
2018-02-27T07:53:37.103Z,90.97
2018-02-27T07:54:37.684Z,90.69
2018-02-27T07:55:38.248Z,91.35
2018-02-27T07:56:38.815Z,90.69
2018-02-27T07:57:39.397Z,90.88
2018-02-27T07:58:39.975Z,91.91
2018-02-27T07:59:40.541Z,92.10
2018-02-27T08:00:41.119Z,93.70
2018-02-27T08:01:41.700Z,93.13
2018-02-27T08:02:42.264Z,93.04
2018-02-27T08:03:42.831Z,93.80
2018-02-27T08:04:43.410Z,93.70
2018-02-27T08:05:43.977Z,93.70
2018-02-27T08:06:44.544Z,94.17
2018-02-27T08:07:45.111Z,94.74
2018-02-27T08:08:45.676Z,93.32
2018-02-27T08:09:46.242Z,94.65
2018-02-27T08:10:46.808Z,92.76
2018-02-27T08:11:47.375Z,93.13
2018-02-27T08:12:47.942Z,94.74
2018-02-27T08:13:48.560Z,94.46
2018-02-27T08:14:49.080Z,94.36
2018-02-27T08:15:49.642Z,94.46
2018-02-27T08:16:50.207Z,94.69
2018-02-27T08:17:50.772Z,94.03
2018-02-27T08:18:51.340Z,94.22
2018-02-27T08:19:51.920Z,94.88
2018-02-27T08:20:52.485Z,94.69
2018-02-27T08:21:53.061Z,95.83
2018-02-27T08:22:53.617Z,98.37
2018-02-27T08:23:54.183Z,97.33
2018-02-27T08:24:54.765Z,99.13
2018-02-27T08:25:55.332Z,99.41
2018-02-27T08:26:55.897Z,99.99
2018-02-27T08:27:56.464Z,98.75
2018-02-27T08:28:57.029Z,99.99
2018-02-27T08:29:57.599Z,99.99
2018-02-27T08:30:58.163Z,99.99
2018-02-27T08:31:58.731Z,99.99
2018-02-27T08:32:59.300Z,99.99
2018-02-27T08:33:59.879Z,99.22
2018-02-27T08:35:00.445Z,99.98
2018-02-27T08:36:01.013Z,99.99
2018-02-27T08:37:01.580Z,99.99
2018-02-27T08:38:02.145Z,99.99
2018-02-27T08:39:02.713Z,99.99
2018-02-27T08:40:03.280Z,99.99
2018-02-27T08:41:03.847Z,99.99
2018-02-27T08:42:04.414Z,99.99
2018-02-27T08:43:04.979Z,99.99
2018-02-27T08:44:05.546Z,99.99
2018-02-27T08:45:06.113Z,99.99
2018-02-27T08:46:06.680Z,99.99
2018-02-27T08:47:07.248Z,99.99
2018-02-27T08:48:07.866Z,99.99
2018-02-27T08:49:08.380Z,99.99
2018-02-27T08:50:08.951Z,99.99
2018-02-27T08:51:09.513Z,99.99
2018-02-27T08:52:10.080Z,99.99
2018-02-27T08:53:10.649Z,99.99
2018-02-27T08:54:11.213Z,99.99
2018-02-27T08:55:11.780Z,99.99
2018-02-27T08:56:12.402Z,99.99
2018-02-27T08:57:12.916Z,99.99
2018-02-27T08:58:13.495Z,99.99
2018-02-27T08:59:14.060Z,99.99
2018-02-27T09:00:14.629Z,99.99
2018-02-27T09:01:15.210Z,99.99
2018-02-27T09:02:15.778Z,99.99
2018-02-27T09:03:16.345Z,99.99
2018-02-27T09:04:16.912Z,99.99
2018-02-27T09:05:17.479Z,99.99
2018-02-27T09:06:18.046Z,99.99
2018-02-27T09:07:18.614Z,99.99
2018-02-27T09:08:19.181Z,99.99
2018-02-27T09:09:19.748Z,99.99
2018-02-27T09:10:20.330Z,99.99
2018-02-27T09:11:20.897Z,99.99
2018-02-27T09:12:21.464Z,99.99
2018-02-27T09:13:22.044Z,99.99
2018-02-27T09:14:22.616Z,99.99
2018-02-27T09:15:23.180Z,99.99
2018-02-27T09:16:23.763Z,99.99
2018-02-27T09:17:24.342Z,99.99
2018-02-27T09:18:24.908Z,99.99
2018-02-27T09:19:25.475Z,99.99
2018-02-27T09:20:26.058Z,99.99
2018-02-27T09:21:26.617Z,99.99
2018-02-27T09:22:27.184Z,99.99
2018-02-27T09:23:27.750Z,99.99
2018-02-27T09:24:28.321Z,99.99
2018-02-27T09:25:28.912Z,99.99
2018-02-27T09:26:29.456Z,99.99
2018-02-27T09:27:30.036Z,99.99
2018-02-27T09:28:30.605Z,99.99
2018-02-27T09:29:31.172Z,99.99
2018-02-27T09:30:31.740Z,99.99
2018-02-27T09:31:32.309Z,99.99
2018-02-27T09:32:32.875Z,99.99
2018-02-27T09:33:33.442Z,99.99
2018-02-27T09:34:34.009Z,99.99
2018-02-27T09:35:34.575Z,99.99
2018-02-27T09:36:35.148Z,99.99
2018-02-27T09:37:35.754Z,99.99
2018-02-27T09:38:36.344Z,99.99
2018-02-27T09:39:36.851Z,99.99
2018-02-27T09:40:37.455Z,99.99
2018-02-27T09:41:37.983Z,99.99
2018-02-27T09:42:38.549Z,99.99
2018-02-27T09:43:39.116Z,99.99
2018-02-27T09:44:39.684Z,99.99
2018-02-27T09:45:40.253Z,99.99
2018-02-27T09:46:40.819Z,99.99
2018-02-27T09:47:41.389Z,99.99
2018-02-27T09:48:41.960Z,99.99
2018-02-27T09:49:42.523Z,99.99
2018-02-27T09:50:43.093Z,99.99
2018-02-27T09:51:43.659Z,99.99
2018-02-27T09:52:44.227Z,99.99
2018-02-27T09:53:44.796Z,99.99
2018-02-27T09:54:45.362Z,99.99
2018-02-27T09:55:45.943Z,99.99
2018-02-27T09:56:46.512Z,99.99
2018-02-27T09:57:47.081Z,99.99
2018-02-27T09:58:47.649Z,99.99
2018-02-27T09:59:48.218Z,99.99
2018-02-27T10:00:48.786Z,99.99
2018-02-27T10:01:49.356Z,99.99
2018-02-27T10:02:49.923Z,99.99
2018-02-27T10:03:50.490Z,99.99
2018-02-27T10:04:51.060Z,99.99
2018-02-27T10:05:51.628Z,99.99
2018-02-27T10:06:52.196Z,99.99
2018-02-27T10:07:52.766Z,99.99
2018-02-27T10:08:53.333Z,99.99
2018-02-27T10:09:53.902Z,99.99
2018-02-27T10:10:54.471Z,99.99
2018-02-27T10:11:55.041Z,99.99
2018-02-27T10:12:55.607Z,99.99
2018-02-27T10:13:56.178Z,99.99
2018-02-27T10:14:56.755Z,99.99
2018-02-27T10:15:57.322Z,99.99
2018-02-27T10:16:57.892Z,99.99
2018-02-27T10:17:58.459Z,99.99
2018-02-27T10:18:59.027Z,99.99
2018-02-27T10:19:59.594Z,99.99
2018-02-27T10:21:00.162Z,99.99
2018-02-27T10:22:00.729Z,99.99
2018-02-27T10:23:01.298Z,99.99
2018-02-27T10:24:01.866Z,99.99
2018-02-27T10:25:02.433Z,99.99
2018-02-27T10:26:03.002Z,99.99
2018-02-27T10:27:03.570Z,99.99
2018-02-27T10:28:04.138Z,99.99
2018-02-27T10:29:04.707Z,99.99
2018-02-27T10:30:05.276Z,99.99
2018-02-27T10:31:05.844Z,99.99
2018-02-27T10:32:06.411Z,99.99
2018-02-27T10:33:06.977Z,99.99
2018-02-27T10:34:07.559Z,99.99
2018-02-27T10:35:08.128Z,99.99
2018-02-27T10:36:08.699Z,99.99
2018-02-27T10:37:09.263Z,99.99
2018-02-27T10:38:09.833Z,99.99
2018-02-27T10:39:10.400Z,99.99
2018-02-27T10:40:10.982Z,99.99
2018-02-27T10:41:11.549Z,99.99
2018-02-27T10:42:12.119Z,99.99
2018-02-27T10:43:12.687Z,99.99
2018-02-27T10:44:13.255Z,99.99
2018-02-27T10:45:13.825Z,99.99
2018-02-27T10:46:14.393Z,99.99
2018-02-27T10:47:14.960Z,99.99
2018-02-27T10:48:15.529Z,99.99
2018-02-27T10:49:16.096Z,99.99
2018-02-27T10:50:16.681Z,99.99
2018-02-27T10:51:17.250Z,99.99
2018-02-27T10:52:17.820Z,99.99
2018-02-27T10:53:18.387Z,99.99
2018-02-27T10:54:18.970Z,99.99
2018-02-27T10:55:19.538Z,99.99
2018-02-27T10:56:20.106Z,99.99
2018-02-27T10:57:20.694Z,99.99
2018-02-27T10:58:21.256Z,99.99
2018-02-27T10:59:21.825Z,99.99
2018-02-27T11:00:22.436Z,99.99
2018-02-27T11:01:22.962Z,99.99
2018-02-27T11:02:23.529Z,99.99
2018-02-27T11:03:24.098Z,99.99
2018-02-27T11:04:24.670Z,99.99
2018-02-27T11:05:25.237Z,99.99
2018-02-27T11:06:25.818Z,99.99
2018-02-27T11:07:26.410Z,99.99
2018-02-27T11:08:26.956Z,99.99
2018-02-27T11:09:27.523Z,99.99
2018-02-27T11:10:28.092Z,99.99
2018-02-27T11:11:28.666Z,99.99
2018-02-27T11:12:29.243Z,99.99
2018-02-27T11:13:29.811Z,99.99
2018-02-27T11:14:30.379Z,99.99
2018-02-27T11:15:30.948Z,99.99
2018-02-27T11:16:31.532Z,99.99
2018-02-27T11:17:32.099Z,99.99
2018-02-27T11:18:32.666Z,99.99
2018-02-27T11:19:33.236Z,99.99
2018-02-27T11:20:33.805Z,99.99
2018-02-27T11:21:34.371Z,99.99
2018-02-27T11:22:34.941Z,99.99
2018-02-27T11:23:35.508Z,99.99
2018-02-27T11:24:36.078Z,99.99
2018-02-27T11:25:36.645Z,99.99
2018-02-27T11:26:37.215Z,99.99
2018-02-27T11:27:37.783Z,99.99
2018-02-27T11:28:38.351Z,99.99
2018-02-27T11:29:38.921Z,99.99
2018-02-27T11:30:39.487Z,99.99
2018-02-27T11:31:40.054Z,99.99
2018-02-27T11:32:40.623Z,99.99
2018-02-27T11:33:41.190Z,99.99
2018-02-27T11:34:41.758Z,99.99
2018-02-27T11:35:42.337Z,99.99
2018-02-27T11:36:42.910Z,99.99
2018-02-27T11:37:43.496Z,99.99
2018-02-27T11:38:44.078Z,99.99
2018-02-27T11:39:44.645Z,99.99
2018-02-27T11:40:45.215Z,99.99
2018-02-27T11:41:45.784Z,99.99
2018-02-27T11:42:46.357Z,99.99
2018-02-27T11:43:46.919Z,99.99
2018-02-27T11:44:47.486Z,99.99
2018-02-27T11:45:48.054Z,99.99
2018-02-27T11:46:48.622Z,99.99
2018-02-27T11:47:49.191Z,99.99
2018-02-27T11:48:49.758Z,99.99
2018-02-27T11:49:50.325Z,99.99
2018-02-27T11:50:50.894Z,99.99
2018-02-27T11:51:51.461Z,99.99
2018-02-27T11:52:52.033Z,99.99
2018-02-27T11:53:52.597Z,99.99
2018-02-27T11:54:53.180Z,99.99
2018-02-27T11:55:53.748Z,99.99
2018-02-27T11:56:54.316Z,99.99
2018-02-27T11:57:54.907Z,99.99
2018-02-27T11:58:55.468Z,99.99
2018-02-27T11:59:56.038Z,99.99
2018-02-27T12:00:56.619Z,99.99
2018-02-27T12:01:57.186Z,99.99
2018-02-27T12:02:57.753Z,99.99
2018-02-27T12:03:58.321Z,99.99
2018-02-27T12:04:58.890Z,99.99
2018-02-27T12:05:59.457Z,99.99
2018-02-27T12:07:00.025Z,99.99
2018-02-27T12:08:00.594Z,99.99
2018-02-27T12:09:01.165Z,99.99
2018-02-27T12:10:01.732Z,99.99
2018-02-27T12:11:02.299Z,99.99
2018-02-27T12:12:02.867Z,99.99
2018-02-27T12:13:03.449Z,99.99
2018-02-27T12:14:04.031Z,99.99
2018-02-27T12:15:04.600Z,99.99
2018-02-27T12:16:05.169Z,99.99
2018-02-27T12:17:05.735Z,99.99
2018-02-27T12:18:06.306Z,99.99
2018-02-27T12:19:06.890Z,99.99
2018-02-27T12:20:07.458Z,99.99
2018-02-27T12:21:08.027Z,99.99
2018-02-27T12:22:08.596Z,99.99
2018-02-27T12:23:09.180Z,99.99
2018-02-27T12:24:09.746Z,99.99
2018-02-27T12:25:10.314Z,99.99
2018-02-27T12:26:10.884Z,99.99
2018-02-27T12:27:11.454Z,99.99
2018-02-27T12:28:12.021Z,99.99
2018-02-27T12:29:12.589Z,99.99
2018-02-27T12:30:13.205Z,99.99
2018-02-27T12:31:13.725Z,99.99
2018-02-27T12:32:14.295Z,99.99
2018-02-27T12:33:14.866Z,99.99
2018-02-27T12:34:15.432Z,99.99
2018-02-27T12:35:16.001Z,99.99
2018-02-27T12:36:16.570Z,99.99
2018-02-27T12:37:17.150Z,99.99
2018-02-27T12:38:17.732Z,99.99
2018-02-27T12:39:18.302Z,99.99
2018-02-27T12:40:18.871Z,99.99
2018-02-27T12:41:19.443Z,99.99
2018-02-27T12:42:20.008Z,99.99
2018-02-27T12:43:20.576Z,99.99
2018-02-27T12:44:21.144Z,99.99
2018-02-27T12:45:21.718Z,99.99
2018-02-27T12:46:22.281Z,99.99
2018-02-27T12:47:22.850Z,99.99
2018-02-27T12:48:23.419Z,99.99
2018-02-27T12:49:23.988Z,99.99
2018-02-27T12:50:24.559Z,99.99
2018-02-27T12:51:25.127Z,99.99
2018-02-27T12:52:25.694Z,99.99
2018-02-27T12:53:26.264Z,99.99
2018-02-27T12:54:26.832Z,99.99
2018-02-27T12:55:27.417Z,99.99
2018-02-27T12:56:28.005Z,99.99
2018-02-27T12:57:28.574Z,99.04
2018-02-27T12:58:29.143Z,97.91
2018-02-27T12:59:29.711Z,97.86